Time;durP1;ratioP1;P1;durP2;ratioP2;P2;SDS_P1;SDS_P2;PMS_P1;PMS_P2;Temp;Humidity;BMP_temperature;BMP_pressure;BME280_temperature;BME280_humidity;BME280_pressure;Samples;Min_cycle;Max_cycle;Signal;HPM_P1;HPM_P2
2021/07/29 00:00:41;;;;;;;;;11.25;11.25;;;;;;;;8758009;40;10677;-66
2021/07/29 00:06:43;;;;;;;;;14.25;10.75;;;;;;;;8749102;40;10622;-67
2021/07/29 00:12:46;;;;;;;;;13.25;11.50;;;;;;;;8748917;40;10598;-66
2021/07/29 00:19:05;;;;;;;;;9.75;9.75;;;;;;;;8739972;40;10611;-65
2021/07/29 00:25:12;;;;;;;;;7.00;6.00;;;;;;;;8748910;40;10353;-67
2021/07/29 00:31:14;;;;;;;;;12.75;12.75;;;;;;;;8748244;40;11082;-66
2021/07/29 00:37:16;;;;;;;;;11.50;11.50;;;;;;;;8747812;40;10463;-66
2021/07/29 00:43:25;;;;;;;;;13.75;12.00;;;;;;;;8740432;40;10416;-66
2021/07/29 00:49:27;;;;;;;;;15.50;11.50;;;;;;;;8748052;40;10622;-65
2021/07/29 00:55:29;;;;;;;;;20.75;20.75;;;;;;;;8743605;40;10828;-65
2021/07/29 01:01:31;;;;;;;;;24.50;22.00;;;;;;;;8747616;40;11127;-66
2021/07/29 01:07:34;;;;;;;;;27.50;25.75;;;;;;;;8747516;40;11156;-67
2021/07/29 01:13:37;;;;;;;;;36.00;32.67;;;;;;;;8747592;40;10738;-66
2021/07/29 01:19:39;;;;;;;;;44.33;39.00;;;;;;;;8746849;40;10074;-67
2021/07/29 01:25:41;;;;;;;;;41.33;37.00;;;;;;;;8747072;40;11693;-66
2021/07/29 01:31:44;;;;;;;;;27.33;26.67;;;;;;;;8746944;40;11399;-65
2021/07/29 01:37:46;;;;;;;;;29.00;25.33;;;;;;;;8747193;40;10351;-66
2021/07/29 01:43:48;;;;;;;;;28.00;27.33;;;;;;;;8747397;40;10613;-66
2021/07/29 01:49:50;;;;;;;;;22.67;22.67;;;;;;;;8747286;40;10568;-66
2021/07/29 01:55:53;;;;;;;;;22.00;21.00;;;;;;;;8757784;40;10383;-66
2021/07/29 02:01:55;;;;;;;;;19.67;19.00;;;;;;;;8752868;40;10320;-66
2021/07/29 02:07:58;;;;;;;;;23.67;22.00;;;;;;;;8750354;40;10655;-67
2021/07/29 02:14:01;;;;;;;;;24.00;21.00;;;;;;;;8750367;40;11677;-65
2021/07/29 02:20:05;;;;;;;;;26.33;24.00;;;;;;;;8749783;40;10535;-66
2021/07/29 02:26:07;;;;;;;;;22.00;20.33;;;;;;;;8750131;40;10461;-66
2021/07/29 02:32:10;;;;;;;;;26.50;24.50;;;;;;;;8749789;40;11087;-66
2021/07/29 02:38:12;;;;;;;;;24.00;24.00;;;;;;;;8749630;40;10170;-65
2021/07/29 02:44:15;;;;;;;;;23.25;20.00;;;;;;;;8750807;40;11220;-66
2021/07/29 02:50:17;;;;;;;;;23.25;23.25;;;;;;;;8015406;40;10000976;-65
2021/07/29 02:56:19;;;;;;;;;26.00;24.67;;;;;;;;8750179;40;10281;-66
2021/07/29 03:02:22;;;;;;;;;25.33;24.33;;;;;;;;8749270;40;10501;-65
2021/07/29 03:08:24;;;;;;;;;24.33;23.33;;;;;;;;8749940;40;10760;-66
2021/07/29 03:14:26;;;;;;;;;25.67;25.33;;;;;;;;8748449;40;10899;-65
2021/07/29 03:20:29;;;;;;;;;31.00;28.00;;;;;;;;8749800;40;10646;-66
2021/07/29 03:26:31;;;;;;;;;25.33;23.33;;;;;;;;8749437;40;10623;-65
2021/07/29 03:32:33;;;;;;;;;24.33;22.00;;;;;;;;8749519;40;10814;-65
2021/07/29 03:38:37;;;;;;;;;27.67;27.33;;;;;;;;8750008;40;10830;-67
2021/07/29 03:44:39;;;;;;;;;24.50;24.50;;;;;;;;8749710;40;11161;-66
2021/07/29 03:50:41;;;;;;;;;22.50;22.25;;;;;;;;8748914;40;11209;-66
2021/07/29 03:56:43;;;;;;;;;23.67;22.67;;;;;;;;8749525;40;10831;-64
2021/07/29 04:02:45;;;;;;;;;26.50;25.75;;;;;;;;9803685;23;10950;-60
2021/07/29 04:08:48;;;;;;;;;28.50;24.75;;;;;;;;8728804;40;11012;-60
2021/07/29 04:14:50;;;;;;;;;26.67;26.33;;;;;;;;8727801;40;11480;-59
2021/07/29 04:20:53;;;;;;;;;26.50;22.75;;;;;;;;8729726;40;10942;-59
2021/07/29 04:26:56;;;;;;;;;29.00;29.00;;;;;;;;8728101;40;11077;-61
2021/07/29 04:32:58;;;;;;;;;24.75;23.25;;;;;;;;8728897;40;10875;-59
2021/07/29 04:39:02;;;;;;;;;26.25;24.00;;;;;;;;8728532;40;11027;-60
2021/07/29 04:45:05;;;;;;;;;27.50;26.25;;;;;;;;8727772;40;10929;-60
2021/07/29 04:51:07;;;;;;;;;27.25;23.75;;;;;;;;8728970;40;11563;-59
2021/07/29 04:57:09;;;;;;;;;32.00;27.25;;;;;;;;8728365;40;10848;-61
2021/07/29 05:03:11;;;;;;;;;33.25;29.50;;;;;;;;8728271;40;11360;-60
2021/07/29 05:09:15;;;;;;;;;28.00;27.00;;;;;;;;8727717;40;11512;-60
2021/07/29 05:15:17;;;;;;;;;28.75;27.75;;;;;;;;8721597;40;10698;-60
2021/07/29 05:21:19;;;;;;;;;25.25;23.50;;;;;;;;8726190;40;10610;-59
2021/07/29 05:27:21;;;;;;;;;28.50;25.25;;;;;;;;8725225;40;10699;-57
2021/07/29 05:33:25;;;;;;;;;27.25;24.00;;;;;;;;8728997;40;11075;-58
2021/07/29 05:39:27;;;;;;;;;28.50;26.50;;;;;;;;8747332;40;10749;-60
2021/07/29 05:45:33;;;;;;;;;27.50;26.75;;;;;;;;8725617;40;10703;-60
2021/07/29 05:51:36;;;;;;;;;23.75;22.50;;;;;;;;8722337;40;10666;-59
2021/07/29 05:57:38;;;;;;;;;27.25;26.50;;;;;;;;8714614;40;11173;-60
2021/07/29 06:03:40;;;;;;;;;25.25;24.25;;;;;;;;8717866;40;10649;-59
2021/07/29 06:09:42;;;;;;;;;29.75;25.00;;;;;;;;8712501;40;10951;-60
2021/07/29 06:15:44;;;;;;;;;25.75;25.75;;;;;;;;8715765;40;10784;-60
2021/07/29 06:21:46;;;;;;;;;20.00;18.00;;;;;;;;8720528;40;10567;-59
2021/07/29 06:27:52;;;;;;;;;24.50;22.00;;;;;;;;8721141;40;10888;-60
2021/07/29 06:33:54;;;;;;;;;19.00;19.00;;;;;;;;8715404;40;10601;-59
2021/07/29 06:39:56;;;;;;;;;27.00;22.25;;;;;;;;8718549;40;10777;-60
2021/07/29 06:46:06;;;;;;;;;19.25;17.00;;;;;;;;8712419;40;10808;-59
2021/07/29 06:52:13;;;;;;;;;21.00;20.75;;;;;;;;8741007;40;11164;-59
2021/07/29 06:58:15;;;;;;;;;17.00;17.00;;;;;;;;8731082;40;10593;-59
2021/07/29 07:04:18;;;;;;;;;16.25;13.00;;;;;;;;8722692;40;10518;-58
2021/07/29 07:10:20;;;;;;;;;17.25;17.25;;;;;;;;8718841;40;11359;-59
2021/07/29 07:16:22;;;;;;;;;18.25;17.75;;;;;;;;8708095;40;10825;-59
2021/07/29 07:22:25;;;;;;;;;20.50;16.50;;;;;;;;8724098;40;11461;-60
2021/07/29 07:28:27;;;;;;;;;16.75;14.75;;;;;;;;8732569;40;10523;-59
2021/07/29 07:34:29;;;;;;;;;20.50;17.50;;;;;;;;8718269;40;10551;-60
2021/07/29 07:40:31;;;;;;;;;15.00;15.00;;;;;;;;8721304;40;10553;-59
2021/07/29 07:46:33;;;;;;;;;14.00;13.00;;;;;;;;8723451;40;10487;-60
2021/07/29 07:52:36;;;;;;;;;18.50;18.00;;;;;;;;8725438;40;10756;-59
2021/07/29 07:58:38;;;;;;;;;18.00;18.00;;;;;;;;8725939;40;10590;-58
2021/07/29 08:04:40;;;;;;;;;20.75;16.25;;;;;;;;8727604;40;11202;-59
2021/07/29 08:10:49;;;;;;;;;19.00;17.25;;;;;;;;8725345;40;10775;-59
2021/07/29 08:16:51;;;;;;;;;23.25;18.00;;;;;;;;8730022;40;10758;-60
2021/07/29 08:22:55;;;;;;;;;18.00;16.25;;;;;;;;8724685;40;10699;-59
2021/07/29 08:28:57;;;;;;;;;16.25;16.00;;;;;;;;8727169;40;10574;-60
2021/07/29 08:35:00;;;;;;;;;19.50;17.00;;;;;;;;8716974;40;10688;-59
2021/07/29 08:41:04;;;;;;;;;17.75;17.50;;;;;;;;8710761;40;10576;-58
2021/07/29 08:47:11;;;;;;;;;21.75;21.75;;;;;;;;8717627;40;11180;-60
2021/07/29 08:53:32;;;;;;;;;21.50;16.25;;;;;;;;8718447;40;10582;-59
2021/07/29 08:59:37;;;;;;;;;12.25;11.75;;;;;;;;8718237;40;11361;-60
2021/07/29 09:05:39;;;;;;;;;21.25;19.25;;;;;;;;8723018;40;11141;-59
2021/07/29 09:11:41;;;;;;;;;18.50;17.50;;;;;;;;8711430;40;10585;-60
2021/07/29 09:17:46;;;;;;;;;22.00;18.25;;;;;;;;8715685;40;10581;-59
2021/07/29 09:24:08;;;;;;;;;18.00;17.00;;;;;;;;8698327;40;10597;-59
2021/07/29 09:30:33;;;;;;;;;18.50;17.75;;;;;;;;8715496;40;10670;-60
2021/07/29 09:36:35;;;;;;;;;20.25;20.25;;;;;;;;8717662;40;10585;-59
2021/07/29 09:42:37;;;;;;;;;19.50;19.00;;;;;;;;8718312;40;10689;-59
2021/07/29 09:48:40;;;;;;;;;22.25;19.50;;;;;;;;8719526;40;11416;-60
2021/07/29 09:54:44;;;;;;;;;27.75;27.50;;;;;;;;8720319;40;11201;-60
2021/07/29 10:00:47;;;;;;;;;17.50;17.25;;;;;;;;8716856;40;10599;-59
2021/07/29 10:06:52;;;;;;;;;22.25;22.25;;;;;;;;8717564;40;10623;-61
2021/07/29 10:12:55;;;;;;;;;21.00;20.75;;;;;;;;8717925;40;10592;-60
2021/07/29 10:19:00;;;;;;;;;23.50;23.50;;;;;;;;8718722;40;10805;-60
2021/07/29 10:25:02;;;;;;;;;25.50;22.50;;;;;;;;8719162;40;11525;-60
2021/07/29 10:31:06;;;;;;;;;29.50;27.25;;;;;;;;8710133;40;10659;-60
2021/07/29 10:37:09;;;;;;;;;24.25;24.00;;;;;;;;8716736;40;10813;-60
2021/07/29 10:43:20;;;;;;;;;27.50;25.75;;;;;;;;8720331;40;10617;-60
2021/07/29 10:49:46;;;;;;;;;26.25;26.25;;;;;;;;8723134;40;10655;-58
2021/07/29 10:55:48;;;;;;;;;22.25;21.75;;;;;;;;8721780;40;10666;-60
2021/07/29 11:01:52;;;;;;;;;27.50;25.75;;;;;;;;8705563;40;11415;-61
2021/07/29 11:08:25;;;;;;;;;21.50;21.50;;;;;;;;8702907;40;10822;-60
2021/07/29 11:14:30;;;;;;;;;24.00;19.25;;;;;;;;8718103;40;10596;-60
2021/07/29 11:20:32;;;;;;;;;13.00;13.00;;;;;;;;8713088;40;10554;-59
2021/07/29 11:26:44;;;;;;;;;23.25;23.25;;;;;;;;8718492;40;10632;-59
2021/07/29 11:32:46;;;;;;;;;21.75;20.00;;;;;;;;8715140;40;10618;-60
2021/07/29 11:39:04;;;;;;;;;25.25;22.25;;;;;;;;8721173;40;11362;-59
2021/07/29 11:45:21;;;;;;;;;24.25;22.75;;;;;;;;8733098;40;11689;-60
2021/07/29 11:51:23;;;;;;;;;31.50;29.75;;;;;;;;8722145;40;10610;-60
2021/07/29 11:57:28;;;;;;;;;24.25;22.50;;;;;;;;8720252;40;10621;-60
2021/07/29 12:03:35;;;;;;;;;23.00;23.00;;;;;;;;8723897;40;10573;-59
2021/07/29 12:09:45;;;;;;;;;20.75;19.25;;;;;;;;8726744;40;10779;-60
2021/07/29 12:15:52;;;;;;;;;23.25;21.75;;;;;;;;8721717;40;10622;-60
2021/07/29 12:21:55;;;;;;;;;25.50;23.75;;;;;;;;8701709;40;10786;-59
2021/07/29 12:27:58;;;;;;;;;21.75;18.00;;;;;;;;8726927;40;10848;-59
2021/07/29 12:34:05;;;;;;;;;24.50;23.50;;;;;;;;8728776;40;10543;-61
2021/07/29 12:40:31;;;;;;;;;21.50;20.00;;;;;;;;8716758;40;10581;-59
2021/07/29 12:46:34;;;;;;;;;25.00;21.75;;;;;;;;8710452;40;10577;-58
2021/07/29 12:52:36;;;;;;;;;22.25;21.00;;;;;;;;8730237;40;10802;-59
2021/07/29 12:58:38;;;;;;;;;23.25;21.00;;;;;;;;8713552;40;10589;-60
2021/07/29 13:04:41;;;;;;;;;24.50;23.00;;;;;;;;8719886;40;10640;-59
2021/07/29 13:10:43;;;;;;;;;40.00;36.25;;;;;;;;8715377;40;10910;-59
2021/07/29 13:16:46;;;;;;;;;24.50;23.00;;;;;;;;8707759;40;10711;-59
2021/07/29 13:22:49;;;;;;;;;26.75;25.00;;;;;;;;8712038;40;10597;-60
2021/07/29 13:28:51;;;;;;;;;22.50;21.50;;;;;;;;8715446;40;10813;-60
2021/07/29 13:34:54;;;;;;;;;27.00;26.00;;;;;;;;8715102;40;11188;-59
2021/07/29 13:40:56;;;;;;;;;22.25;20.50;;;;;;;;8716948;40;10598;-60
2021/07/29 13:46:58;;;;;;;;;23.00;22.25;;;;;;;;8715560;40;10544;-59
2021/07/29 13:53:02;;;;;;;;;24.00;21.75;;;;;;;;8723101;40;10560;-59
2021/07/29 13:59:04;;;;;;;;;12.75;12.00;;;;;;;;8725071;40;10497;-60
2021/07/29 14:05:09;;;;;;;;;23.75;21.25;;;;;;;;8721769;40;10851;-59
2021/07/29 14:11:11;;;;;;;;;21.25;21.25;;;;;;;;8723722;40;10720;-60
2021/07/29 14:17:18;;;;;;;;;20.00;19.00;;;;;;;;8724708;40;10831;-60
2021/07/29 14:23:23;;;;;;;;;24.75;22.50;;;;;;;;8234704;40;20002153;-61
2021/07/29 14:29:25;;;;;;;;;28.75;27.00;;;;;;;;8720001;40;11519;-60
2021/07/29 14:35:27;;;;;;;;;23.50;22.25;;;;;;;;8725216;40;10560;-60
2021/07/29 14:41:29;;;;;;;;;17.25;16.25;;;;;;;;8725570;40;12068;-61
2021/07/29 14:53:53;;;;;;;;;25.75;25.75;;;;;;;;8726666;40;10856;-61
2021/07/29 16:09:50;;;;;;;;;26.25;25.25;;;;;;;;8725252;40;10561;-60
2021/07/29 16:15:52;;;;;;;;;25.25;23.00;;;;;;;;8724180;40;11857;-60
2021/07/29 16:21:54;;;;;;;;;27.25;24.50;;;;;;;;8724912;40;10605;-62
2021/07/29 16:27:56;;;;;;;;;24.00;20.25;;;;;;;;8725102;40;10777;-59
2021/07/29 16:33:58;;;;;;;;;25.00;22.50;;;;;;;;8724272;40;10800;-60
2021/07/29 16:40:00;;;;;;;;;27.75;25.75;;;;;;;;8725327;40;10539;-61
2021/07/29 16:46:02;;;;;;;;;27.25;25.00;;;;;;;;8723451;40;10592;-61
2021/07/29 16:52:05;;;;;;;;;29.50;27.00;;;;;;;;8723589;40;10623;-61
2021/07/29 16:58:07;;;;;;;;;27.50;26.75;;;;;;;;8723488;40;10837;-61
2021/07/29 17:04:09;;;;;;;;;32.00;28.75;;;;;;;;8724600;40;10625;-61
2021/07/29 17:10:11;;;;;;;;;25.25;23.50;;;;;;;;8723880;40;11275;-60
2021/07/29 17:16:13;;;;;;;;;27.50;27.50;;;;;;;;8723342;40;10560;-61
2021/07/29 17:22:17;;;;;;;;;30.00;28.25;;;;;;;;8723392;40;10626;-60
2021/07/29 17:28:19;;;;;;;;;29.75;27.75;;;;;;;;8723205;40;10763;-60
2021/07/29 17:34:22;;;;;;;;;33.25;32.75;;;;;;;;8722903;40;10815;-61
2021/07/29 17:40:24;;;;;;;;;40.25;34.25;;;;;;;;8723273;40;10516;-59
2021/07/29 17:46:26;;;;;;;;;39.75;37.25;;;;;;;;8722792;40;10753;-61
2021/07/29 17:52:28;;;;;;;;;25.75;25.75;;;;;;;;8723306;40;10869;-61
2021/07/29 17:58:31;;;;;;;;;27.00;27.00;;;;;;;;8722688;40;10521;-60
2021/07/29 18:04:33;;;;;;;;;30.50;27.75;;;;;;;;8722792;40;10750;-61
2021/07/29 18:10:37;;;;;;;;;30.25;28.00;;;;;;;;8722989;40;11376;-61
2021/07/29 18:16:39;;;;;;;;;26.00;25.50;;;;;;;;8722126;40;10740;-59
2021/07/29 18:22:41;;;;;;;;;20.25;20.25;;;;;;;;8722498;40;10593;-59
2021/07/29 18:28:43;;;;;;;;;34.25;29.25;;;;;;;;8721990;40;10643;-60
2021/07/29 18:34:47;;;;;;;;;25.75;25.00;;;;;;;;8722703;40;10539;-61
2021/07/29 18:40:49;;;;;;;;;24.50;23.50;;;;;;;;8723681;40;10509;-59
2021/07/29 18:46:51;;;;;;;;;26.25;23.75;;;;;;;;8715390;40;10568;-60
2021/07/29 18:52:53;;;;;;;;;26.75;23.75;;;;;;;;8725470;40;10814;-60
2021/07/29 18:58:55;;;;;;;;;20.25;19.00;;;;;;;;8724964;40;10812;-61
2021/07/29 19:04:59;;;;;;;;;16.25;16.25;;;;;;;;8724878;40;10482;-59
2021/07/29 19:11:02;;;;;;;;;24.50;23.25;;;;;;;;8725623;40;10601;-60
2021/07/29 19:17:05;;;;;;;;;22.00;22.00;;;;;;;;8725837;40;10555;-59
2021/07/29 19:23:07;;;;;;;;;29.50;25.50;;;;;;;;8725522;40;10621;-60
2021/07/29 19:29:09;;;;;;;;;26.25;23.50;;;;;;;;8724490;40;10537;-60
2021/07/29 19:35:11;;;;;;;;;27.50;24.25;;;;;;;;8724727;40;11122;-61
2021/07/29 19:41:14;;;;;;;;;25.25;23.00;;;;;;;;8725519;40;10574;-61
2021/07/29 19:47:16;;;;;;;;;28.75;25.00;;;;;;;;8724477;40;10574;-60
2021/07/29 19:53:18;;;;;;;;;23.25;23.00;;;;;;;;8724065;40;10693;-60
2021/07/29 19:59:20;;;;;;;;;26.00;26.00;;;;;;;;8725436;40;10636;-60
2021/07/29 20:05:23;;;;;;;;;28.25;26.00;;;;;;;;8724577;40;10691;-60
2021/07/29 20:11:26;;;;;;;;;29.25;26.50;;;;;;;;8725537;40;10777;-59
2021/07/29 20:17:28;;;;;;;;;27.50;24.75;;;;;;;;8723594;40;11744;-60
2021/07/29 20:23:30;;;;;;;;;24.00;23.75;;;;;;;;8724316;40;10642;-61
2021/07/29 20:29:32;;;;;;;;;26.25;24.00;;;;;;;;8724072;40;11234;-60
2021/07/29 20:35:34;;;;;;;;;30.00;26.00;;;;;;;;8724325;40;10660;-60
2021/07/29 20:41:36;;;;;;;;;25.50;23.25;;;;;;;;8723353;40;10581;-60
2021/07/29 20:47:42;;;;;;;;;21.00;21.00;;;;;;;;8721978;40;10519;-60
2021/07/29 20:53:44;;;;;;;;;23.00;22.25;;;;;;;;8723690;40;10617;-60
2021/07/29 20:59:46;;;;;;;;;28.25;22.25;;;;;;;;8724070;40;10913;-59
2021/07/29 21:05:48;;;;;;;;;20.50;17.00;;;;;;;;8723228;40;10633;-60
2021/07/29 21:11:51;;;;;;;;;21.75;19.50;;;;;;;;8723379;40;10517;-60
2021/07/29 21:17:53;;;;;;;;;25.25;21.00;;;;;;;;8723227;40;10561;-60
2021/07/29 21:24:00;;;;;;;;;20.25;19.00;;;;;;;;8722295;40;10623;-60
2021/07/29 21:30:03;;;;;;;;;19.25;16.25;;;;;;;;8722974;40;10733;-59
2021/07/29 21:36:05;;;;;;;;;18.75;18.75;;;;;;;;8722568;40;10782;-60
2021/07/29 21:42:07;;;;;;;;;24.25;22.50;;;;;;;;8722864;40;10565;-60
2021/07/29 21:48:09;;;;;;;;;23.50;21.50;;;;;;;;8722113;40;10619;-61
2021/07/29 21:54:11;;;;;;;;;22.50;20.00;;;;;;;;8722223;40;10598;-60
2021/07/29 22:00:14;;;;;;;;;25.25;21.50;;;;;;;;8722286;40;11721;-60
2021/07/29 22:06:17;;;;;;;;;23.25;22.25;;;;;;;;8722894;40;10619;-59
2021/07/29 22:12:19;;;;;;;;;22.00;19.25;;;;;;;;8722342;40;10613;-60
2021/07/29 22:18:21;;;;;;;;;19.50;18.25;;;;;;;;8724419;40;10523;-60
2021/07/29 22:24:23;;;;;;;;;19.25;16.00;;;;;;;;8724619;40;11744;-59
2021/07/29 22:30:25;;;;;;;;;18.25;16.00;;;;;;;;8726487;40;10556;-60
2021/07/29 22:36:27;;;;;;;;;23.00;21.50;;;;;;;;8726522;40;10656;-60
2021/07/29 22:42:29;;;;;;;;;23.00;21.50;;;;;;;;8725368;40;10554;-60
2021/07/29 22:48:32;;;;;;;;;19.25;17.75;;;;;;;;8726287;40;11211;-60
2021/07/29 22:54:34;;;;;;;;;20.25;19.75;;;;;;;;8725063;40;10744;-60
2021/07/29 23:00:36;;;;;;;;;25.25;20.50;;;;;;;;8726202;40;10543;-60
2021/07/29 23:06:39;;;;;;;;;23.50;23.50;;;;;;;;8724088;40;10643;-59
2021/07/29 23:12:41;;;;;;;;;19.25;17.75;;;;;;;;8725771;40;10764;-59
2021/07/29 23:18:43;;;;;;;;;20.00;20.00;;;;;;;;8723949;40;10552;-61
2021/07/29 23:25:03;;;;;;;;;20.25;19.00;;;;;;;;8724722;40;10556;-60
2021/07/29 23:31:05;;;;;;;;;25.50;21.50;;;;;;;;8723884;40;10717;-60
2021/07/29 23:37:07;;;;;;;;;19.25;17.50;;;;;;;;8725303;40;10535;-60
2021/07/29 23:43:10;;;;;;;;;23.75;21.00;;;;;;;;8725225;40;10847;-60
2021/07/29 23:49:13;;;;;;;;;22.50;21.25;;;;;;;;8714973;40;10760;-59
2021/07/29 23:55:15;;;;;;;;;25.75;24.75;;;;;;;;8725136;40;10799;-59
